createdAt,value
2019-03-10T00:01:01.201Z,1.13
2019-03-10T00:03:28.169Z,1.30
2019-03-10T00:05:55.142Z,1.03
2019-03-10T00:08:22.067Z,1.20
2019-03-10T00:10:49.008Z,1.13
2019-03-10T00:13:15.934Z,1.07
2019-03-10T00:15:42.840Z,1.30
2019-03-10T00:18:09.777Z,1.20
2019-03-10T00:20:36.692Z,1.17
2019-03-10T00:23:03.628Z,1.20
2019-03-10T00:25:30.572Z,1.27
2019-03-10T00:27:57.497Z,1.50
2019-03-10T00:30:24.427Z,1.20
2019-03-10T00:32:51.384Z,1.30
2019-03-10T00:35:18.316Z,1.20
2019-03-10T00:37:45.244Z,1.27
2019-03-10T00:40:32.032Z,1.30
2019-03-10T00:43:26.456Z,1.17
2019-03-10T00:46:08.267Z,1.17
2019-03-10T00:49:02.132Z,1.37
2019-03-10T00:51:52.396Z,1.27
2019-03-10T00:54:19.319Z,1.30
2019-03-10T00:56:46.254Z,1.30
2019-03-10T00:59:13.204Z,1.30
2019-03-10T01:01:40.136Z,1.30
2019-03-10T01:04:07.066Z,1.10
2019-03-10T01:06:34.007Z,1.20
2019-03-10T01:09:00.964Z,1.30
2019-03-10T01:11:27.888Z,1.30
2019-03-10T01:13:54.842Z,1.17
2019-03-10T01:16:21.764Z,1.30
2019-03-10T01:18:48.705Z,1.10
2019-03-10T01:21:15.640Z,1.30
2019-03-10T01:23:42.972Z,1.50
2019-03-10T01:26:09.483Z,0.80
2019-03-10T01:28:36.434Z,1.00
2019-03-10T01:31:17.492Z,1.30
2019-03-10T01:33:56.403Z,1.17
2019-03-10T01:36:22.601Z,1.10
2019-03-10T01:38:49.541Z,0.80
2019-03-10T01:41:16.512Z,1.00
2019-03-10T01:43:43.436Z,1.27
2019-03-10T01:46:10.387Z,1.00
2019-03-10T01:48:37.757Z,1.10
2019-03-10T01:51:05.020Z,1.00
2019-03-10T01:53:31.966Z,1.20
2019-03-10T01:55:58.911Z,1.30
2019-03-10T01:58:25.835Z,1.27
2019-03-10T02:00:52.762Z,1.10
2019-03-10T02:03:19.719Z,1.03
2019-03-10T02:05:46.643Z,1.30
2019-03-10T02:08:13.574Z,0.97
2019-03-10T02:10:40.525Z,0.97
2019-03-10T02:13:07.452Z,1.00
2019-03-10T02:15:34.753Z,0.97
2019-03-10T02:18:01.713Z,1.03
2019-03-10T02:20:28.648Z,0.70
2019-03-10T02:22:55.572Z,1.30
2019-03-10T02:25:22.546Z,1.20
2019-03-10T02:27:49.474Z,0.90
2019-03-10T02:30:17.240Z,1.20
2019-03-10T02:32:44.212Z,1.00
2019-03-10T02:35:11.173Z,0.90
2019-03-10T02:37:38.100Z,0.83
2019-03-10T02:40:05.806Z,0.80
2019-03-10T02:42:32.722Z,1.00
2019-03-10T02:44:59.647Z,1.00
2019-03-10T02:47:26.701Z,1.00
2019-03-10T02:49:54.013Z,1.00
2019-03-10T02:52:20.946Z,1.00
2019-03-10T02:54:47.862Z,0.90
2019-03-10T02:57:14.828Z,0.90
2019-03-10T02:59:41.757Z,0.93
2019-03-10T03:02:08.740Z,0.87
2019-03-10T03:04:35.669Z,1.00
2019-03-10T03:07:02.601Z,1.00
2019-03-10T03:09:29.577Z,1.20
2019-03-10T03:11:56.536Z,0.90
2019-03-10T03:14:23.461Z,1.40
2019-03-10T03:16:52.776Z,0.80
2019-03-10T03:19:17.392Z,0.73
2019-03-10T03:21:44.309Z,1.00
2019-03-10T03:24:11.266Z,0.90
2019-03-10T03:26:38.229Z,1.10
2019-03-10T03:29:05.162Z,0.93
2019-03-10T03:31:32.111Z,1.20
2019-03-10T03:33:59.070Z,1.10
2019-03-10T03:36:28.585Z,0.70
2019-03-10T03:38:59.353Z,1.00
2019-03-10T03:41:26.325Z,0.90
2019-03-10T03:43:53.262Z,1.00
2019-03-10T03:46:20.216Z,0.77
2019-03-10T03:48:47.144Z,0.60
2019-03-10T03:51:15.680Z,0.80
2019-03-10T03:53:42.668Z,0.70
2019-03-10T03:56:09.596Z,0.70
2019-03-10T03:58:36.519Z,0.80
2019-03-10T04:01:15.621Z,0.67
2019-03-10T04:03:42.537Z,0.90
2019-03-10T04:06:09.465Z,1.00
2019-03-10T04:08:36.419Z,0.67
2019-03-10T04:11:03.333Z,0.60
2019-03-10T04:13:30.257Z,0.50
2019-03-10T04:15:57.220Z,0.73
2019-03-10T04:18:24.148Z,0.80
2019-03-10T04:20:51.094Z,0.60
2019-03-10T04:23:18.064Z,1.00
2019-03-10T04:25:44.996Z,0.80
2019-03-10T04:28:11.936Z,1.20
2019-03-10T04:30:38.887Z,0.80
2019-03-10T04:33:05.796Z,0.70
2019-03-10T04:35:32.728Z,1.13
2019-03-10T04:37:59.687Z,0.73
2019-03-10T04:40:26.597Z,0.80
2019-03-10T04:42:53.521Z,0.67
2019-03-10T04:45:20.477Z,1.00
2019-03-10T04:47:47.395Z,0.90
2019-03-10T04:50:16.328Z,1.00
2019-03-10T04:52:42.570Z,0.77
2019-03-10T04:55:18.764Z,0.70
2019-03-10T04:57:57.498Z,0.70
2019-03-10T05:00:24.500Z,0.80
2019-03-10T05:02:51.423Z,0.83
2019-03-10T05:05:18.386Z,1.10
2019-03-10T05:07:45.304Z,1.00
2019-03-10T05:10:12.234Z,0.70
2019-03-10T05:12:39.179Z,1.00
2019-03-10T05:15:06.138Z,0.70
2019-03-10T05:17:33.033Z,0.50
2019-03-10T05:19:59.972Z,0.77
2019-03-10T05:22:26.927Z,0.50
2019-03-10T05:24:53.863Z,0.50
2019-03-10T05:27:20.819Z,0.60
2019-03-10T05:29:47.746Z,0.70
2019-03-10T05:32:14.720Z,0.70
2019-03-10T05:34:41.667Z,0.80
2019-03-10T05:37:08.596Z,0.70
2019-03-10T05:39:35.545Z,0.90
2019-03-10T05:42:02.489Z,1.13
2019-03-10T05:44:29.408Z,0.80
2019-03-10T05:46:56.336Z,0.70
2019-03-10T05:49:23.284Z,0.80
2019-03-10T05:51:50.215Z,0.90
2019-03-10T05:54:17.357Z,0.57
2019-03-10T05:56:44.302Z,1.00
2019-03-10T05:59:11.249Z,0.70
2019-03-10T06:01:38.183Z,0.80
2019-03-10T06:04:05.150Z,0.80
2019-03-10T06:06:32.085Z,0.70
2019-03-10T06:08:59.026Z,0.60
2019-03-10T06:11:26.136Z,0.63
2019-03-10T06:13:53.097Z,0.67
2019-03-10T06:16:20.076Z,0.40
2019-03-10T06:18:47.057Z,0.57
2019-03-10T06:21:14.000Z,0.80
2019-03-10T06:23:40.958Z,0.67
2019-03-10T06:26:07.935Z,0.80
2019-03-10T06:28:34.875Z,0.70
2019-03-10T06:31:01.793Z,0.60
2019-03-10T06:33:28.736Z,0.80
2019-03-10T06:35:55.661Z,0.73
2019-03-10T06:38:22.582Z,0.73
2019-03-10T06:40:49.528Z,0.63
2019-03-10T06:43:16.468Z,0.80
2019-03-10T06:45:43.399Z,0.90
2019-03-10T06:48:10.341Z,1.10
2019-03-10T06:50:37.270Z,0.80
2019-03-10T06:53:04.188Z,1.00
2019-03-10T06:55:32.633Z,1.00
2019-03-10T06:57:59.547Z,0.90
2019-03-10T07:00:26.464Z,1.20
2019-03-10T07:02:53.413Z,0.70
2019-03-10T07:05:20.340Z,0.90
2019-03-10T07:07:47.264Z,0.70
2019-03-10T07:10:14.232Z,0.60
2019-03-10T07:12:41.172Z,0.73
2019-03-10T07:15:08.993Z,0.70
2019-03-10T07:17:35.964Z,0.60
2019-03-10T07:20:03.413Z,0.43
2019-03-10T07:22:30.345Z,0.60
2019-03-10T07:24:57.433Z,0.70
2019-03-10T07:27:25.384Z,0.40
2019-03-10T07:29:58.500Z,0.40
2019-03-10T07:32:35.248Z,0.67
2019-03-10T07:35:15.481Z,0.70
2019-03-10T07:38:02.874Z,0.50
2019-03-10T07:40:35.561Z,0.50
2019-03-10T07:43:10.672Z,0.40
2019-03-10T07:45:49.088Z,0.60
2019-03-10T07:48:38.525Z,0.80
2019-03-10T07:51:11.973Z,0.80
2019-03-10T07:53:56.531Z,0.90
2019-03-10T07:56:32.752Z,0.57
2019-03-10T07:59:13.544Z,0.60
2019-03-10T08:01:51.779Z,0.80
2019-03-10T08:04:27.849Z,0.47
2019-03-10T08:07:18.301Z,0.80
2019-03-10T08:10:05.805Z,0.60
2019-03-10T08:12:43.070Z,0.70
2019-03-10T08:15:19.213Z,1.10
2019-03-10T08:17:52.514Z,1.50
2019-03-10T08:20:27.093Z,1.13
2019-03-10T08:22:59.916Z,0.70
2019-03-10T08:25:32.842Z,0.60
2019-03-10T08:28:08.915Z,0.70
2019-03-10T08:30:56.412Z,0.70
2019-03-10T08:33:36.616Z,0.60
2019-03-10T08:36:13.808Z,0.80
2019-03-10T08:39:00.217Z,0.80
2019-03-10T08:41:33.016Z,0.70
2019-03-10T08:44:15.400Z,0.60
2019-03-10T08:46:52.121Z,0.80
2019-03-10T08:49:45.450Z,0.60
2019-03-10T08:52:14.381Z,0.80
2019-03-10T08:54:50.954Z,0.50
2019-03-10T08:57:28.442Z,0.50
2019-03-10T09:00:05.966Z,0.50
2019-03-10T09:02:38.748Z,0.47
2019-03-10T09:05:18.171Z,0.50
2019-03-10T09:08:03.952Z,0.50
2019-03-10T09:10:44.946Z,0.40
2019-03-10T09:13:18.542Z,0.40
2019-03-10T09:15:55.333Z,0.40
2019-03-10T09:18:35.274Z,0.37
2019-03-10T09:21:08.015Z,0.43
2019-03-10T09:23:57.440Z,0.50
2019-03-10T09:26:32.828Z,0.43
2019-03-10T09:29:21.208Z,0.50
2019-03-10T09:31:56.585Z,0.40
2019-03-10T09:34:31.909Z,0.53
2019-03-10T09:37:04.639Z,0.40
2019-03-10T09:39:40.353Z,0.60
2019-03-10T09:42:13.068Z,0.53
2019-03-10T09:44:47.961Z,0.70
2019-03-10T09:47:25.693Z,0.50
2019-03-10T09:49:58.364Z,0.40
2019-03-10T09:52:47.758Z,0.60
2019-03-10T09:55:34.336Z,0.70
2019-03-10T09:58:10.918Z,0.50
2019-03-10T10:00:48.188Z,0.80
2019-03-10T10:03:22.532Z,0.63
2019-03-10T10:05:55.136Z,0.50
2019-03-10T10:08:41.724Z,0.83
2019-03-10T10:11:15.708Z,0.67
2019-03-10T10:13:49.759Z,0.40
2019-03-10T10:16:22.592Z,0.70
2019-03-10T10:19:11.767Z,0.60
2019-03-10T10:21:52.869Z,0.50
2019-03-10T10:24:27.003Z,0.50
2019-03-10T10:27:04.377Z,0.50
2019-03-10T10:29:50.936Z,0.60
2019-03-10T10:32:41.271Z,0.70
2019-03-10T10:35:18.080Z,1.03
2019-03-10T10:37:54.567Z,1.03
2019-03-10T10:40:33.449Z,0.50
2019-03-10T10:43:08.435Z,0.50
2019-03-10T10:45:50.817Z,0.50
2019-03-10T10:48:25.523Z,0.60
2019-03-10T10:51:18.209Z,0.60
2019-03-10T10:53:55.174Z,0.63
2019-03-10T10:56:27.867Z,0.57
2019-03-10T10:59:06.164Z,0.80
2019-03-10T11:01:43.868Z,0.60
2019-03-10T11:04:31.237Z,0.53
2019-03-10T11:07:07.985Z,0.67
2019-03-10T11:09:43.101Z,0.60
2019-03-10T11:12:15.844Z,0.50
2019-03-10T11:14:53.169Z,0.70
2019-03-10T11:17:27.509Z,0.50
2019-03-10T11:20:07.644Z,0.50
2019-03-10T11:22:46.835Z,0.60
2019-03-10T11:25:20.435Z,0.53
2019-03-10T11:27:53.808Z,0.40
2019-03-10T11:30:26.640Z,0.40
2019-03-10T11:33:14.223Z,0.33
2019-03-10T11:36:02.480Z,0.30
2019-03-10T11:38:37.225Z,0.40
2019-03-10T11:41:13.862Z,0.50
2019-03-10T11:43:48.544Z,0.40
2019-03-10T11:46:37.039Z,0.50
2019-03-10T11:49:23.614Z,0.37
2019-03-10T11:51:55.823Z,0.30
2019-03-10T11:54:42.392Z,0.80
2019-03-10T11:57:18.189Z,0.50
2019-03-10T11:59:52.105Z,0.30
2019-03-10T12:02:28.891Z,0.50
2019-03-10T12:05:05.373Z,0.40
2019-03-10T12:07:39.571Z,0.40
2019-03-10T12:10:07.281Z,0.30
2019-03-10T12:12:34.213Z,0.30
2019-03-10T12:15:01.167Z,0.30
2019-03-10T12:17:28.148Z,0.30
2019-03-10T12:19:55.080Z,0.40
2019-03-10T12:22:22.009Z,0.30
2019-03-10T12:24:48.981Z,0.30
2019-03-10T12:27:15.912Z,0.37
2019-03-10T12:29:42.861Z,0.40
2019-03-10T12:32:09.849Z,0.40
2019-03-10T12:34:36.781Z,0.50
2019-03-10T12:37:03.704Z,0.40
2019-03-10T12:39:30.640Z,0.30
2019-03-10T12:41:58.751Z,0.40
2019-03-10T12:44:24.493Z,0.30
2019-03-10T12:46:51.454Z,0.80
2019-03-10T12:49:18.380Z,0.40
2019-03-10T12:51:45.313Z,0.40
2019-03-10T12:54:12.268Z,0.33
2019-03-10T12:56:40.720Z,0.30
2019-03-10T12:59:06.118Z,0.30
2019-03-10T13:01:33.637Z,0.30
2019-03-10T13:04:00.648Z,0.30
2019-03-10T13:06:27.608Z,0.40
2019-03-10T13:08:54.616Z,0.50
2019-03-10T13:11:21.449Z,0.30
2019-03-10T13:13:48.385Z,0.33
2019-03-10T13:16:15.316Z,0.50
2019-03-10T13:18:42.245Z,0.30
2019-03-10T13:21:09.170Z,0.43
2019-03-10T13:23:36.119Z,0.53
2019-03-10T13:26:03.059Z,0.77
2019-03-10T13:28:29.981Z,0.70
2019-03-10T13:30:56.928Z,0.50
2019-03-10T13:33:23.855Z,0.80
2019-03-10T13:35:50.819Z,0.70
2019-03-10T13:38:17.787Z,0.60
2019-03-10T13:40:44.684Z,0.60
2019-03-10T13:43:11.599Z,0.60
2019-03-10T13:45:38.555Z,0.70
2019-03-10T13:48:05.476Z,0.70
2019-03-10T13:50:32.412Z,0.70
2019-03-10T13:52:59.348Z,0.87
2019-03-10T13:55:26.272Z,1.00
2019-03-10T13:57:53.217Z,0.70
2019-03-10T14:00:21.125Z,0.80
2019-03-10T14:02:49.949Z,1.00
2019-03-10T14:05:16.883Z,0.80
2019-03-10T14:07:43.819Z,1.13
2019-03-10T14:10:10.823Z,0.77
2019-03-10T14:12:37.688Z,0.90
2019-03-10T14:15:04.684Z,0.90
2019-03-10T14:17:31.632Z,0.93
2019-03-10T14:19:58.574Z,0.83
2019-03-10T14:22:25.532Z,0.90
2019-03-10T14:24:52.499Z,1.13
2019-03-10T14:27:19.460Z,0.90
2019-03-10T14:29:46.428Z,0.90
2019-03-10T14:32:13.356Z,0.93
2019-03-10T14:34:40.273Z,0.93
2019-03-10T14:37:07.220Z,1.30
2019-03-10T14:39:34.187Z,1.13
2019-03-10T14:42:01.092Z,1.70
2019-03-10T14:44:28.049Z,1.40
2019-03-10T14:46:55.004Z,1.33
2019-03-10T14:49:23.528Z,1.20
2019-03-10T14:51:49.097Z,1.40
2019-03-10T14:54:16.098Z,1.10
2019-03-10T14:56:43.032Z,1.20
2019-03-10T14:59:09.971Z,1.20
2019-03-10T15:01:36.905Z,1.30
2019-03-10T15:04:04.352Z,1.20
2019-03-10T15:06:31.320Z,1.60
2019-03-10T15:08:58.239Z,1.57
2019-03-10T15:11:25.209Z,1.30
2019-03-10T15:13:52.143Z,1.00
2019-03-10T15:16:19.088Z,1.60
2019-03-10T15:18:46.019Z,1.77
2019-03-10T15:21:12.971Z,1.60
2019-03-10T15:23:40.519Z,1.53
2019-03-10T15:26:07.003Z,1.90
2019-03-10T15:28:33.961Z,1.87
2019-03-10T15:31:00.890Z,2.00
2019-03-10T15:33:27.841Z,2.00
2019-03-10T15:35:54.783Z,2.30
2019-03-10T15:38:21.721Z,1.90
2019-03-10T15:40:48.691Z,1.97
2019-03-10T15:43:15.644Z,1.90
2019-03-10T15:45:42.615Z,1.73
2019-03-10T15:48:09.528Z,1.90
2019-03-10T15:50:36.809Z,2.10
2019-03-10T15:53:03.724Z,2.37
2019-03-10T15:55:30.651Z,1.60
2019-03-10T15:57:57.640Z,1.97
2019-03-10T16:00:24.728Z,2.07
2019-03-10T16:02:51.836Z,2.30
2019-03-10T16:05:19.221Z,2.20
2019-03-10T16:07:46.142Z,2.30
2019-03-10T16:10:13.106Z,2.23
2019-03-10T16:12:40.052Z,2.67
2019-03-10T16:15:09.824Z,3.30
2019-03-10T16:17:36.759Z,3.00
2019-03-10T16:20:04.295Z,2.40
2019-03-10T16:22:31.229Z,2.70
2019-03-10T16:24:58.177Z,3.00
2019-03-10T16:27:25.121Z,2.93
2019-03-10T16:29:52.056Z,2.33
2019-03-10T16:32:18.977Z,2.20
2019-03-10T16:34:45.928Z,2.30
2019-03-10T16:37:12.901Z,2.10
2019-03-10T16:39:39.837Z,2.07
2019-03-10T16:42:06.778Z,2.30
2019-03-10T16:44:33.727Z,2.47
2019-03-10T16:47:00.670Z,1.80
2019-03-10T16:49:27.613Z,2.23
2019-03-10T16:51:54.559Z,1.90
2019-03-10T16:54:21.531Z,2.57
2019-03-10T16:56:48.476Z,2.07
2019-03-10T16:59:15.412Z,1.90
2019-03-10T17:01:42.352Z,2.17
2019-03-10T17:04:09.295Z,1.77
2019-03-10T17:06:36.655Z,2.13
2019-03-10T17:09:15.101Z,1.80
2019-03-10T17:11:42.069Z,1.97
2019-03-10T17:14:09.006Z,2.13
2019-03-10T17:16:35.945Z,2.00
2019-03-10T17:19:02.880Z,1.80
2019-03-10T17:21:29.806Z,2.00
2019-03-10T17:23:56.771Z,2.70
2019-03-10T17:26:23.708Z,1.83
2019-03-10T17:28:50.645Z,2.07
2019-03-10T17:31:17.599Z,1.80
2019-03-10T17:33:44.556Z,1.73
2019-03-10T17:36:11.494Z,1.80
2019-03-10T17:38:38.434Z,2.23
2019-03-10T17:41:05.381Z,2.30
2019-03-10T17:43:32.304Z,1.77
2019-03-10T17:45:59.243Z,2.33
2019-03-10T17:48:26.210Z,2.27
2019-03-10T17:50:53.140Z,2.27
2019-03-10T17:53:20.093Z,1.93
2019-03-10T17:55:47.044Z,1.93
2019-03-10T17:58:13.988Z,2.40
2019-03-10T18:00:41.507Z,3.87
2019-03-10T18:03:08.438Z,2.87
2019-03-10T18:05:35.479Z,3.37
2019-03-10T18:08:02.930Z,2.17
2019-03-10T18:10:29.804Z,1.70
2019-03-10T18:12:56.742Z,1.70
2019-03-10T18:15:23.971Z,1.97
2019-03-10T18:17:50.912Z,1.63
2019-03-10T18:20:17.859Z,1.83
2019-03-10T18:22:44.800Z,1.73
2019-03-10T18:25:11.759Z,1.77
2019-03-10T18:27:38.765Z,1.70
2019-03-10T18:30:07.869Z,1.60
2019-03-10T18:32:34.814Z,1.80
2019-03-10T18:35:01.745Z,1.73
2019-03-10T18:37:31.764Z,1.90
2019-03-10T18:39:55.635Z,1.83
2019-03-10T18:42:22.569Z,1.57
2019-03-10T18:44:49.526Z,1.77
2019-03-10T18:47:16.449Z,1.63
2019-03-10T18:49:43.378Z,1.20
2019-03-10T18:52:10.317Z,1.40
2019-03-10T18:54:37.265Z,1.40
2019-03-10T18:57:04.201Z,1.73
2019-03-10T18:59:31.114Z,1.70
2019-03-10T19:01:58.075Z,1.10
2019-03-10T19:04:25.011Z,1.57
2019-03-10T19:06:51.948Z,1.10
2019-03-10T19:09:19.621Z,1.63
2019-03-10T19:11:46.518Z,2.00
2019-03-10T19:14:13.459Z,1.50
2019-03-10T19:16:40.413Z,1.43
2019-03-10T19:19:07.342Z,2.20
2019-03-10T19:21:34.281Z,1.37
2019-03-10T19:24:01.237Z,1.70
2019-03-10T19:26:28.176Z,1.60
2019-03-10T19:28:55.144Z,1.50
2019-03-10T19:31:22.072Z,1.57
2019-03-10T19:33:49.020Z,1.50
2019-03-10T19:36:16.958Z,1.57
2019-03-10T19:38:43.864Z,1.50
2019-03-10T19:41:10.789Z,1.50
2019-03-10T19:43:37.758Z,1.73
2019-03-10T19:46:04.689Z,1.43
2019-03-10T19:48:31.604Z,2.40
2019-03-10T19:50:58.562Z,1.33
2019-03-10T19:53:25.490Z,1.40
2019-03-10T19:55:52.436Z,1.37
2019-03-10T19:58:19.381Z,1.57
2019-03-10T20:00:46.313Z,1.30
2019-03-10T20:03:13.262Z,1.50
2019-03-10T20:05:40.228Z,1.33
2019-03-10T20:08:07.236Z,1.80
2019-03-10T20:10:34.607Z,1.43
2019-03-10T20:13:01.564Z,1.40
2019-03-10T20:15:28.481Z,1.73
2019-03-10T20:17:55.426Z,1.87
2019-03-10T20:20:22.403Z,1.90
2019-03-10T20:22:49.327Z,1.60
2019-03-10T20:25:16.262Z,1.90
2019-03-10T20:27:43.225Z,1.63
2019-03-10T20:30:14.165Z,2.27
2019-03-10T20:32:41.109Z,2.00
2019-03-10T20:35:08.054Z,1.77
2019-03-10T20:37:35.036Z,1.43
2019-03-10T20:40:02.157Z,1.93
2019-03-10T20:42:29.120Z,1.80
2019-03-10T20:44:56.036Z,2.03
2019-03-10T20:47:22.965Z,2.30
2019-03-10T20:49:50.237Z,1.60
2019-03-10T20:52:17.240Z,2.20
2019-03-10T20:54:44.156Z,2.10
2019-03-10T20:57:11.113Z,1.70
2019-03-10T20:59:38.046Z,1.70
2019-03-10T21:02:05.032Z,1.90
2019-03-10T21:04:31.980Z,2.13
2019-03-10T21:06:58.921Z,2.47
2019-03-10T21:09:27.467Z,2.13
2019-03-10T21:11:56.112Z,1.73
2019-03-10T21:14:23.043Z,1.50
2019-03-10T21:16:50.002Z,2.20
2019-03-10T21:19:16.973Z,2.57
2019-03-10T21:21:43.929Z,2.20
2019-03-10T21:24:10.853Z,2.07
2019-03-10T21:26:37.810Z,2.40
2019-03-10T21:29:04.729Z,2.00
2019-03-10T21:31:31.663Z,2.00
2019-03-10T21:33:58.652Z,5.73
2019-03-10T21:36:25.567Z,3.43
2019-03-10T21:38:52.512Z,2.67
2019-03-10T21:41:19.687Z,2.03
2019-03-10T21:43:46.663Z,2.23
2019-03-10T21:46:13.557Z,1.97
2019-03-10T21:48:40.485Z,2.43
2019-03-10T21:51:07.428Z,2.00
2019-03-10T21:53:34.368Z,1.80
2019-03-10T21:56:01.304Z,2.20
2019-03-10T21:58:28.277Z,2.40
2019-03-10T22:00:55.215Z,2.43
2019-03-10T22:03:22.181Z,2.47
2019-03-10T22:05:49.561Z,1.73
2019-03-10T22:08:16.503Z,2.53
2019-03-10T22:10:43.465Z,2.57
2019-03-10T22:13:10.794Z,2.37
2019-03-10T22:15:41.883Z,2.50
2019-03-10T22:18:04.708Z,2.10
2019-03-10T22:20:31.634Z,2.50
2019-03-10T22:22:58.571Z,2.20
2019-03-10T22:25:25.563Z,2.53
2019-03-10T22:27:52.947Z,2.00
2019-03-10T22:30:19.908Z,2.60
2019-03-10T22:32:46.872Z,2.23
2019-03-10T22:35:14.105Z,2.80
2019-03-10T22:37:41.043Z,2.00
2019-03-10T22:40:08.796Z,2.30
2019-03-10T22:42:35.714Z,2.47
2019-03-10T22:45:02.670Z,2.00
2019-03-10T22:47:29.632Z,2.20
2019-03-10T22:49:56.556Z,2.10
2019-03-10T22:52:23.476Z,2.23
2019-03-10T22:54:50.447Z,2.40
2019-03-10T22:57:17.360Z,2.80
2019-03-10T22:59:45.448Z,2.20
2019-03-10T23:02:11.238Z,2.30
2019-03-10T23:04:38.244Z,2.43
2019-03-10T23:07:05.224Z,3.07
2019-03-10T23:09:32.104Z,2.13
2019-03-10T23:11:59.032Z,2.93
2019-03-10T23:14:26.443Z,2.30
2019-03-10T23:16:53.404Z,1.90
2019-03-10T23:19:20.324Z,2.30
2019-03-10T23:21:47.272Z,2.90
2019-03-10T23:24:14.227Z,3.00
2019-03-10T23:26:41.168Z,2.50
2019-03-10T23:29:08.124Z,2.30
2019-03-10T23:31:35.085Z,2.73
2019-03-10T23:34:02.016Z,2.57
2019-03-10T23:36:28.983Z,3.13
2019-03-10T23:38:55.932Z,2.70
2019-03-10T23:41:22.862Z,2.50
2019-03-10T23:43:49.787Z,2.93
2019-03-10T23:46:16.749Z,2.60
2019-03-10T23:48:43.688Z,2.73
2019-03-10T23:51:10.656Z,2.60
2019-03-10T23:53:37.599Z,2.13
2019-03-10T23:56:04.519Z,2.40
2019-03-10T23:58:31.459Z,2.00
